sensor_id;sensor_type;location;lat;lon;timestamp;pressure;altitude;pressure_sealevel;temperature;humidity
71772;BME280;59606;52.138;5.424;2023-02-12T00:01:34;103985.16;;;7.82;92.78
71772;BME280;59606;52.138;5.424;2023-02-12T00:04:01;103991.19;;;7.84;92.62
71772;BME280;59606;52.138;5.424;2023-02-12T00:06:27;103991.22;;;7.82;92.97
71772;BME280;59606;52.138;5.424;2023-02-12T00:08:55;103986.84;;;7.81;92.96
71772;BME280;59606;52.138;5.424;2023-02-12T00:11:25;103985.13;;;7.80;92.82
71772;BME280;59606;52.138;5.424;2023-02-12T00:13:52;103980.78;;;7.79;92.83
71772;BME280;59606;52.138;5.424;2023-02-12T00:16:22;103986.84;;;7.78;92.77
71772;BME280;59606;52.138;5.424;2023-02-12T00:18:53;103983.38;;;7.77;92.80
71772;BME280;59606;52.138;5.424;2023-02-12T00:21:21;103985.09;;;7.77;92.58
71772;BME280;59606;52.138;5.424;2023-02-12T00:23:47;103986.81;;;7.75;93.15
71772;BME280;59606;52.138;5.424;2023-02-12T00:26:16;103982.47;;;7.74;92.31
71772;BME280;59606;52.138;5.424;2023-02-12T00:28:43;103989.41;;;7.73;92.36
71772;BME280;59606;52.138;5.424;2023-02-12T00:31:12;103987.63;;;7.71;92.88
71772;BME280;59606;52.138;5.424;2023-02-12T00:33:40;103988.53;;;7.71;92.84
71772;BME280;59606;52.138;5.424;2023-02-12T00:36:08;103978.16;;;7.71;93.11
71772;BME280;59606;52.138;5.424;2023-02-12T00:38:35;103984.19;;;7.70;92.81
71772;BME280;59606;52.138;5.424;2023-02-12T00:41:01;103982.41;;;7.68;92.92
71772;BME280;59606;52.138;5.424;2023-02-12T00:43:28;103985.03;;;7.66;93.19
71772;BME280;59606;52.138;5.424;2023-02-12T00:45:54;103979.81;;;7.65;93.43
71772;BME280;59606;52.138;5.424;2023-02-12T00:48:21;103980.69;;;7.65;92.83
71772;BME280;59606;52.138;5.424;2023-02-12T00:50:50;103983.28;;;7.65;92.87
71772;BME280;59606;52.138;5.424;2023-02-12T00:53:17;103982.41;;;7.66;93.28
71772;BME280;59606;52.138;5.424;2023-02-12T00:55:44;103978.09;;;7.67;93.23
71772;BME280;59606;52.138;5.424;2023-02-12T00:58:11;103983.28;;;7.65;93.08
71772;BME280;59606;52.138;5.424;2023-02-12T01:00:38;103980.66;;;7.64;92.69
71772;BME280;59606;52.138;5.424;2023-02-12T01:03:04;103982.41;;;7.63;92.42
71772;BME280;59606;52.138;5.424;2023-02-12T01:05:31;103982.41;;;7.62;92.75
71772;BME280;59606;52.138;5.424;2023-02-12T01:07:58;103986.69;;;7.61;93.10
71772;BME280;59606;52.138;5.424;2023-02-12T01:10:25;103984.09;;;7.61;92.99
71772;BME280;59606;52.138;5.424;2023-02-12T01:12:51;103991.88;;;7.61;93.01
71772;BME280;59606;52.138;5.424;2023-02-12T01:15:18;103987.59;;;7.62;93.68
71772;BME280;59606;52.138;5.424;2023-02-12T01:17:45;103980.66;;;7.62;93.16
71772;BME280;59606;52.138;5.424;2023-02-12T01:20:14;103986.72;;;7.63;93.17
71772;BME280;59606;52.138;5.424;2023-02-12T01:22:43;103979.78;;;7.60;93.40
71772;BME280;59606;52.138;5.424;2023-02-12T01:25:10;103979.78;;;7.60;92.64
71772;BME280;59606;52.138;5.424;2023-02-12T01:27:36;103988.41;;;7.61;93.08
71772;BME280;59606;52.138;5.424;2023-02-12T01:30:04;103984.97;;;7.59;92.65
71772;BME280;59606;52.138;5.424;2023-02-12T01:32:31;103984.94;;;7.57;93.78
71772;BME280;59606;52.138;5.424;2023-02-12T01:34:57;103982.34;;;7.57;93.25
71772;BME280;59606;52.138;5.424;2023-02-12T01:37:24;103980.63;;;7.56;93.34
71772;BME280;59606;52.138;5.424;2023-02-12T01:39:50;103981.44;;;7.53;93.44
71772;BME280;59606;52.138;5.424;2023-02-12T01:42:17;103981.44;;;7.52;93.48
71772;BME280;59606;52.138;5.424;2023-02-12T01:45:17;103981.41;;;7.50;93.89
71772;BME280;59606;52.138;5.424;2023-02-12T01:47:31;103989.16;;;7.47;93.94
71772;BME280;59606;52.138;5.424;2023-02-12T01:49:57;103983.16;;;7.48;93.95
71772;BME280;59606;52.138;5.424;2023-02-12T01:52:28;103983.97;;;7.47;93.95
71772;BME280;59606;52.138;5.424;2023-02-12T01:54:58;103990.06;;;7.48;93.40
71772;BME280;59606;52.138;5.424;2023-02-12T01:57:27;103987.44;;;7.45;93.48
71772;BME280;59606;52.138;5.424;2023-02-12T01:59:57;103979.66;;;7.45;93.75
71772;BME280;59606;52.138;5.424;2023-02-12T02:02:25;103985.69;;;7.42;93.80
71772;BME280;59606;52.138;5.424;2023-02-12T02:04:59;103975.28;;;7.41;93.88
71772;BME280;59606;52.138;5.424;2023-02-12T02:07:27;103974.41;;;7.39;93.35
71772;BME280;59606;52.138;5.424;2023-02-12T02:09:54;103976.13;;;7.35;93.48
71772;BME280;59606;52.138;5.424;2023-02-12T02:12:23;103975.22;;;7.31;94.02
71772;BME280;59606;52.138;5.424;2023-02-12T02:15:09;103976.00;;;7.27;93.53
71772;BME280;59606;52.138;5.424;2023-02-12T02:20:29;103986.34;;;7.23;94.24
71772;BME280;59606;52.138;5.424;2023-02-12T02:26:26;103978.56;;;7.21;94.23
71772;BME280;59606;52.138;5.424;2023-02-12T02:31:57;103977.69;;;7.21;94.23
71772;BME280;59606;52.138;5.424;2023-02-12T02:37:22;103973.34;;;7.18;94.30
71772;BME280;59606;52.138;5.424;2023-02-12T02:42:53;103975.09;;;7.18;94.83
71772;BME280;59606;52.138;5.424;2023-02-12T02:45:28;103967.31;;;7.18;94.73
71772;BME280;59606;52.138;5.424;2023-02-12T02:47:59;103964.69;;;7.16;94.86
71772;BME280;59606;52.138;5.424;2023-02-12T02:50:29;103969.88;;;7.15;94.56
71772;BME280;59606;52.138;5.424;2023-02-12T02:53:06;103965.50;;;7.14;94.69
71772;BME280;59606;52.138;5.424;2023-02-12T02:55:39;103966.38;;;7.13;94.79
71772;BME280;59606;52.138;5.424;2023-02-12T02:58:11;103968.09;;;7.14;94.47
71772;BME280;59606;52.138;5.424;2023-02-12T03:00:44;103965.50;;;7.14;94.89
71772;BME280;59606;52.138;5.424;2023-02-12T03:03:41;103962.09;;;7.15;94.93
71772;BME280;59606;52.138;5.424;2023-02-12T03:06:16;103960.31;;;7.12;95.02
71772;BME280;59606;52.138;5.424;2023-02-12T03:08:54;103953.38;;;7.08;94.82
71772;BME280;59606;52.138;5.424;2023-02-12T03:11:25;103955.06;;;7.04;94.66
71772;BME280;59606;52.138;5.424;2023-02-12T03:17:02;103950.72;;;7.03;94.79
71772;BME280;59606;52.138;5.424;2023-02-12T03:19:52;103954.19;;;7.04;95.01
71772;BME280;59606;52.138;5.424;2023-02-12T03:22:24;103953.31;;;7.03;95.19
71772;BME280;59606;52.138;5.424;2023-02-12T03:24:57;103956.78;;;7.04;95.13
71772;BME280;59606;52.138;5.424;2023-02-12T03:27:31;103955.06;;;7.04;95.16
71772;BME280;59606;52.138;5.424;2023-02-12T03:30:00;103961.13;;;7.06;94.92
71772;BME280;59606;52.138;5.424;2023-02-12T03:38:01;103962.84;;;7.07;95.02
71772;BME280;59606;52.138;5.424;2023-02-12T03:43:23;103959.38;;;7.02;95.11
71772;BME280;59606;52.138;5.424;2023-02-12T03:46:09;103960.22;;;7.03;95.16
71772;BME280;59606;52.138;5.424;2023-02-12T03:49:00;103960.25;;;7.04;95.36
71772;BME280;59606;52.138;5.424;2023-02-12T03:54:04;103963.72;;;7.05;95.58
71772;BME280;59606;52.138;5.424;2023-02-12T03:56:54;103962.00;;;7.05;95.53
71772;BME280;59606;52.138;5.424;2023-02-12T03:59:23;103968.91;;;7.06;95.21
71772;BME280;59606;52.138;5.424;2023-02-12T04:01:52;103975.81;;;7.07;95.15
71772;BME280;59606;52.138;5.424;2023-02-12T04:04:19;103975.84;;;7.09;95.23
71772;BME280;59606;52.138;5.424;2023-02-12T04:06:48;103975.00;;;7.08;95.41
71772;BME280;59606;52.138;5.424;2023-02-12T04:09:16;103981.91;;;7.09;95.59
71772;BME280;59606;52.138;5.424;2023-02-12T04:16:59;103978.44;;;7.11;95.56
71772;BME280;59606;52.138;5.424;2023-02-12T04:19:34;103975.84;;;7.11;95.53
71772;BME280;59606;52.138;5.424;2023-02-12T04:24:49;103981.06;;;7.12;95.51
71772;BME280;59606;52.138;5.424;2023-02-12T04:30:30;103989.72;;;7.11;95.61
71772;BME280;59606;52.138;5.424;2023-02-12T04:33:02;103991.41;;;7.11;96.07
71772;BME280;59606;52.138;5.424;2023-02-12T04:35:51;103995.72;;;7.10;95.64
71772;BME280;59606;52.138;5.424;2023-02-12T04:38:25;103997.44;;;7.09;96.19
71772;BME280;59606;52.138;5.424;2023-02-12T04:40:52;103993.13;;;7.08;95.68
71772;BME280;59606;52.138;5.424;2023-02-12T04:43:29;103997.44;;;7.08;95.75
71772;BME280;59606;52.138;5.424;2023-02-12T04:45:56;104000.88;;;7.07;95.69
71772;BME280;59606;52.138;5.424;2023-02-12T04:48:23;103998.28;;;7.07;96.32
71772;BME280;59606;52.138;5.424;2023-02-12T04:50:49;104005.16;;;7.03;96.31
71772;BME280;59606;52.138;5.424;2023-02-12T04:53:16;104000.00;;;7.05;96.39
71772;BME280;59606;52.138;5.424;2023-02-12T04:55:42;104006.94;;;7.07;96.06
71772;BME280;59606;52.138;5.424;2023-02-12T04:58:09;104003.50;;;7.08;96.03
71772;BME280;59606;52.138;5.424;2023-02-12T05:00:36;104008.69;;;7.08;95.95
71772;BME280;59606;52.138;5.424;2023-02-12T05:03:03;104002.63;;;7.09;95.96
71772;BME280;59606;52.138;5.424;2023-02-12T05:05:29;104005.28;;;7.11;95.92
71772;BME280;59606;52.138;5.424;2023-02-12T05:07:56;104007.84;;;7.11;96.16
71772;BME280;59606;52.138;5.424;2023-02-12T05:10:22;104003.53;;;7.12;96.17
71772;BME280;59606;52.138;5.424;2023-02-12T05:12:52;104010.44;;;7.11;96.02
71772;BME280;59606;52.138;5.424;2023-02-12T05:15:19;104006.13;;;7.12;96.13
71772;BME280;59606;52.138;5.424;2023-02-12T05:17:46;104015.63;;;7.13;95.96
71772;BME280;59606;52.138;5.424;2023-02-12T05:20:13;104007.84;;;7.11;95.77
71772;BME280;59606;52.138;5.424;2023-02-12T05:22:39;104001.81;;;7.12;96.06
71772;BME280;59606;52.138;5.424;2023-02-12T05:25:06;104007.00;;;7.12;95.70
71772;BME280;59606;52.138;5.424;2023-02-12T05:27:33;104014.78;;;7.12;96.00
71772;BME280;59606;52.138;5.424;2023-02-12T05:29:59;104010.44;;;7.11;96.02
71772;BME280;59606;52.138;5.424;2023-02-12T05:32:26;104007.00;;;7.12;95.72
71772;BME280;59606;52.138;5.424;2023-02-12T05:34:52;104010.44;;;7.13;95.71
71772;BME280;59606;52.138;5.424;2023-02-12T05:37:19;104015.63;;;7.11;95.68
71772;BME280;59606;52.138;5.424;2023-02-12T05:39:48;104013.88;;;7.10;95.70
71772;BME280;59606;52.138;5.424;2023-02-12T05:42:14;104015.56;;;7.06;95.92
71772;BME280;59606;52.138;5.424;2023-02-12T05:44:41;104005.19;;;7.05;95.75
71772;BME280;59606;52.138;5.424;2023-02-12T05:47:07;104010.38;;;7.05;95.67
71772;BME280;59606;52.138;5.424;2023-02-12T05:49:33;104009.50;;;7.04;95.91
71772;BME280;59606;52.138;5.424;2023-02-12T05:52:00;104008.63;;;7.04;95.28
71772;BME280;59606;52.138;5.424;2023-02-12T05:54:26;104022.47;;;7.04;95.72
71772;BME280;59606;52.138;5.424;2023-02-12T05:56:53;104008.63;;;7.01;95.58
71772;BME280;59606;52.138;5.424;2023-02-12T05:59:21;104010.31;;;7.00;95.64
71772;BME280;59606;52.138;5.424;2023-02-12T06:01:49;104015.50;;;7.00;95.22
71772;BME280;59606;52.138;5.424;2023-02-12T06:04:26;104018.13;;;7.03;95.43
71772;BME280;59606;52.138;5.424;2023-02-12T06:06:55;104017.25;;;7.01;95.25
71772;BME280;59606;52.138;5.424;2023-02-12T06:09:22;104018.13;;;7.02;94.87
71772;BME280;59606;52.138;5.424;2023-02-12T06:11:48;104022.44;;;7.01;94.89
71772;BME280;59606;52.138;5.424;2023-02-12T06:14:17;104020.72;;;7.03;95.30
71772;BME280;59606;52.138;5.424;2023-02-12T06:16:46;104018.16;;;7.05;95.31
71772;BME280;59606;52.138;5.424;2023-02-12T06:19:13;104024.16;;;7.04;95.25
71772;BME280;59606;52.138;5.424;2023-02-12T06:21:40;104024.16;;;7.04;95.12
71772;BME280;59606;52.138;5.424;2023-02-12T06:24:06;104025.06;;;7.06;94.79
71772;BME280;59606;52.138;5.424;2023-02-12T06:26:33;104019.00;;;7.04;94.71
71772;BME280;59606;52.138;5.424;2023-02-12T06:29:00;104015.53;;;7.03;94.71
71772;BME280;59606;52.138;5.424;2023-02-12T06:31:28;104013.81;;;7.02;94.79
71772;BME280;59606;52.138;5.424;2023-02-12T06:34:01;104013.81;;;7.04;95.14
71772;BME280;59606;52.138;5.424;2023-02-12T06:36:28;104010.34;;;7.02;95.39
71772;BME280;59606;52.138;5.424;2023-02-12T06:38:54;104015.50;;;7.00;95.03
71772;BME280;59606;52.138;5.424;2023-02-12T06:41:22;104014.63;;;7.00;94.82
71772;BME280;59606;52.138;5.424;2023-02-12T06:43:49;104013.75;;;6.99;95.14
71772;BME280;59606;52.138;5.424;2023-02-12T06:46:15;104017.22;;;7.00;94.38
71772;BME280;59606;52.138;5.424;2023-02-12T06:48:42;104025.03;;;7.01;94.57
71772;BME280;59606;52.138;5.424;2023-02-12T06:51:11;104030.22;;;7.01;94.86
71772;BME280;59606;52.138;5.424;2023-02-12T06:53:38;104031.03;;;7.00;95.06
71772;BME280;59606;52.138;5.424;2023-02-12T06:56:07;104018.94;;;6.99;94.29
71772;BME280;59606;52.138;5.424;2023-02-12T06:58:38;104030.19;;;7.00;94.19
71772;BME280;59606;52.138;5.424;2023-02-12T07:01:25;104033.63;;;7.00;94.34
71772;BME280;59606;52.138;5.424;2023-02-12T07:03:58;104036.22;;;7.00;94.62
71772;BME280;59606;52.138;5.424;2023-02-12T07:06:25;104037.13;;;7.02;94.68
71772;BME280;59606;52.138;5.424;2023-02-12T07:08:53;104042.31;;;7.02;94.52
71772;BME280;59606;52.138;5.424;2023-02-12T07:11:24;104044.03;;;7.02;94.15
71772;BME280;59606;52.138;5.424;2023-02-12T07:13:51;104051.78;;;7.00;93.97
71772;BME280;59606;52.138;5.424;2023-02-12T07:16:18;104041.38;;;6.97;94.14
71772;BME280;59606;52.138;5.424;2023-02-12T07:18:44;104040.53;;;6.98;94.16
71772;BME280;59606;52.138;5.424;2023-02-12T07:21:12;104050.91;;;6.98;94.24
71772;BME280;59606;52.138;5.424;2023-02-12T07:23:40;104057.88;;;7.01;93.94
71772;BME280;59606;52.138;5.424;2023-02-12T07:26:10;104057.88;;;7.01;94.10
71772;BME280;59606;52.138;5.424;2023-02-12T07:28:37;104057.88;;;7.02;93.73
71772;BME280;59606;52.138;5.424;2023-02-12T07:31:12;104063.06;;;7.04;93.93
71772;BME280;59606;52.138;5.424;2023-02-12T07:33:40;104068.28;;;7.05;93.59
71772;BME280;59606;52.138;5.424;2023-02-12T07:36:11;104067.38;;;7.03;93.77
71772;BME280;59606;52.138;5.424;2023-02-12T07:38:38;104071.72;;;7.04;93.22
71772;BME280;59606;52.138;5.424;2023-02-12T07:43:41;104063.91;;;7.03;93.30
71772;BME280;59606;52.138;5.424;2023-02-12T07:46:13;104067.41;;;7.05;93.36
71772;BME280;59606;52.138;5.424;2023-02-12T07:48:43;104076.06;;;7.05;93.58
71772;BME280;59606;52.138;5.424;2023-02-12T07:51:12;104073.47;;;7.07;93.58
71772;BME280;59606;52.138;5.424;2023-02-12T07:53:39;104082.16;;;7.11;93.07
71772;BME280;59606;52.138;5.424;2023-02-12T07:56:11;104080.44;;;7.11;93.51
71772;BME280;59606;52.138;5.424;2023-02-12T07:58:39;104082.19;;;7.14;93.41
71772;BME280;59606;52.138;5.424;2023-02-12T08:03:44;104080.53;;;7.19;92.83
71772;BME280;59606;52.138;5.424;2023-02-12T08:06:16;104077.94;;;7.19;93.21
71772;BME280;59606;52.138;5.424;2023-02-12T08:08:44;104083.13;;;7.20;93.62
71772;BME280;59606;52.138;5.424;2023-02-12T08:11:12;104097.84;;;7.21;92.49
71772;BME280;59606;52.138;5.424;2023-02-12T08:13:39;104089.19;;;7.21;92.63
71772;BME280;59606;52.138;5.424;2023-02-12T08:16:09;104092.66;;;7.21;92.81
71772;BME280;59606;52.138;5.424;2023-02-12T08:18:36;104103.91;;;7.23;92.52
71772;BME280;59606;52.138;5.424;2023-02-12T08:21:06;104101.31;;;7.22;92.77
71772;BME280;59606;52.138;5.424;2023-02-12T08:23:34;104103.03;;;7.23;92.84
71772;BME280;59606;52.138;5.424;2023-02-12T08:28:36;104106.53;;;7.25;92.54
71772;BME280;59606;52.138;5.424;2023-02-12T08:31:04;104110.88;;;7.27;92.72
71772;BME280;59606;52.138;5.424;2023-02-12T08:33:32;104104.84;;;7.28;92.05
71772;BME280;59606;52.138;5.424;2023-02-12T08:36:09;104100.53;;;7.30;92.19
71772;BME280;59606;52.138;5.424;2023-02-12T08:38:37;104114.41;;;7.32;92.39
71772;BME280;59606;52.138;5.424;2023-02-12T08:41:07;104110.97;;;7.37;92.23
71772;BME280;59606;52.138;5.424;2023-02-12T08:43:35;104117.91;;;7.36;91.69
71772;BME280;59606;52.138;5.424;2023-02-12T08:46:06;104123.94;;;7.37;92.18
71772;BME280;59606;52.138;5.424;2023-02-12T08:48:34;104125.69;;;7.36;91.36
71772;BME280;59606;52.138;5.424;2023-02-12T08:51:08;104129.16;;;7.38;91.86
71772;BME280;59606;52.138;5.424;2023-02-12T08:53:37;104131.78;;;7.40;92.15
71772;BME280;59606;52.138;5.424;2023-02-12T08:56:04;104130.91;;;7.41;91.32
71772;BME280;59606;52.138;5.424;2023-02-12T08:58:32;104125.75;;;7.42;91.71
71772;BME280;59606;52.138;5.424;2023-02-12T09:00:58;104127.53;;;7.45;91.83
71772;BME280;59606;52.138;5.424;2023-02-12T09:03:25;104124.06;;;7.46;91.33
71772;BME280;59606;52.138;5.424;2023-02-12T09:05:51;104130.97;;;7.47;91.71
71772;BME280;59606;52.138;5.424;2023-02-12T09:08:18;104124.97;;;7.48;90.68
71772;BME280;59606;52.138;5.424;2023-02-12T09:10:45;104118.91;;;7.50;91.39
71772;BME280;59606;52.138;5.424;2023-02-12T09:13:13;104123.22;;;7.50;91.24
71772;BME280;59606;52.138;5.424;2023-02-12T09:15:42;104130.16;;;7.51;90.24
71772;BME280;59606;52.138;5.424;2023-02-12T09:18:12;104129.31;;;7.52;90.53
71772;BME280;59606;52.138;5.424;2023-02-12T09:20:42;104124.13;;;7.52;90.13
71772;BME280;59606;52.138;5.424;2023-02-12T09:23:11;104132.78;;;7.54;90.53
71772;BME280;59606;52.138;5.424;2023-02-12T09:25:43;104127.59;;;7.54;89.96
71772;BME280;59606;52.138;5.424;2023-02-12T09:28:12;104135.41;;;7.57;90.96
71772;BME280;59606;52.138;5.424;2023-02-12T09:30:39;104140.69;;;7.62;90.91
71772;BME280;59606;52.138;5.424;2023-02-12T09:33:08;104133.75;;;7.62;90.10
71772;BME280;59606;52.138;5.424;2023-02-12T09:35:38;104146.78;;;7.67;90.37
71772;BME280;59606;52.138;5.424;2023-02-12T09:38:05;104138.13;;;7.68;90.29
71772;BME280;59606;52.138;5.424;2023-02-12T09:40:43;104133.78;;;7.67;89.93
71772;BME280;59606;52.138;5.424;2023-02-12T09:46:11;104139.06;;;7.71;90.23
71772;BME280;59606;52.138;5.424;2023-02-12T09:48:51;104133.88;;;7.73;90.39
71772;BME280;59606;52.138;5.424;2023-02-12T09:51:20;104141.66;;;7.74;90.12
71772;BME280;59606;52.138;5.424;2023-02-12T09:53:59;104135.63;;;7.77;89.95
71772;BME280;59606;52.138;5.424;2023-02-12T09:56:27;104132.19;;;7.79;90.32
71772;BME280;59606;52.138;5.424;2023-02-12T09:59:02;104137.38;;;7.81;89.60
71772;BME280;59606;52.138;5.424;2023-02-12T10:01:30;104135.69;;;7.82;89.88
71772;BME280;59606;52.138;5.424;2023-02-12T10:03:56;104139.16;;;7.82;89.92
71772;BME280;59606;52.138;5.424;2023-02-12T10:06:29;104139.19;;;7.85;89.65
71772;BME280;59606;52.138;5.424;2023-02-12T10:09:24;104134.84;;;7.87;89.52
71772;BME280;59606;52.138;5.424;2023-02-12T10:11:59;104128.81;;;7.87;89.62
71772;BME280;59606;52.138;5.424;2023-02-12T10:17:12;104126.28;;;7.93;89.24
71772;BME280;59606;52.138;5.424;2023-02-12T10:20:02;104134.09;;;7.97;89.37
71772;BME280;59606;52.138;5.424;2023-02-12T10:25:32;104130.69;;;8.03;89.25
71772;BME280;59606;52.138;5.424;2023-02-12T10:28:08;104131.56;;;8.03;88.94
71772;BME280;59606;52.138;5.424;2023-02-12T10:30:58;104127.25;;;8.06;88.45
71772;BME280;59606;52.138;5.424;2023-02-12T10:33:30;104131.59;;;8.07;88.82
71772;BME280;59606;52.138;5.424;2023-02-12T10:38:56;104135.97;;;8.12;88.46
71772;BME280;59606;52.138;5.424;2023-02-12T10:41:26;104138.56;;;8.14;88.78
71772;BME280;59606;52.138;5.424;2023-02-12T10:43:53;104135.09;;;8.13;88.40
71772;BME280;59606;52.138;5.424;2023-02-12T10:46:20;104131.63;;;8.14;88.17
71772;BME280;59606;52.138;5.424;2023-02-12T10:48:52;104141.22;;;8.18;88.81
71772;BME280;59606;52.138;5.424;2023-02-12T10:52:45;104135.16;;;8.21;87.87
71772;BME280;59606;52.138;5.424;2023-02-12T10:54:44;104140.34;;;8.21;87.55
71772;BME280;59606;52.138;5.424;2023-02-12T10:57:23;104136.03;;;8.21;87.24
71772;BME280;59606;52.138;5.424;2023-02-12T10:59:53;104132.59;;;8.22;87.10
71772;BME280;59606;52.138;5.424;2023-02-12T11:02:30;104133.47;;;8.26;86.87
71772;BME280;59606;52.138;5.424;2023-02-12T11:04:59;104128.28;;;8.27;86.78
71772;BME280;59606;52.138;5.424;2023-02-12T11:07:45;104134.38;;;8.30;86.46
71772;BME280;59606;52.138;5.424;2023-02-12T11:10:20;104130.94;;;8.32;86.63
71772;BME280;59606;52.138;5.424;2023-02-12T11:12:47;104140.47;;;8.35;86.66
71772;BME280;59606;52.138;5.424;2023-02-12T11:15:17;104138.75;;;8.37;86.26
71772;BME280;59606;52.138;5.424;2023-02-12T11:17:54;104137.91;;;8.38;85.95
71772;BME280;59606;52.138;5.424;2023-02-12T11:20:36;104128.38;;;8.38;86.29
71772;BME280;59606;52.138;5.424;2023-02-12T11:23:08;104121.50;;;8.40;86.57
71772;BME280;59606;52.138;5.424;2023-02-12T11:26:06;104128.44;;;8.44;86.31
71772;BME280;59606;52.138;5.424;2023-02-12T11:28:56;104121.50;;;8.45;85.84
71772;BME280;59606;52.138;5.424;2023-02-12T11:31:27;104120.69;;;8.50;86.09
71772;BME280;59606;52.138;5.424;2023-02-12T11:36:32;104122.47;;;8.56;85.74
71772;BME280;59606;52.138;5.424;2023-02-12T11:39:00;104119.88;;;8.56;85.37
71772;BME280;59606;52.138;5.424;2023-02-12T11:41:38;104125.06;;;8.58;85.35
71772;BME280;59606;52.138;5.424;2023-02-12T11:44:16;104118.16;;;8.61;85.69
71772;BME280;59606;52.138;5.424;2023-02-12T11:46:50;104112.13;;;8.64;84.82
71772;BME280;59606;52.138;5.424;2023-02-12T11:49:22;104111.25;;;8.63;85.15
71772;BME280;59606;52.138;5.424;2023-02-12T11:51:51;104119.03;;;8.63;84.46
71772;BME280;59606;52.138;5.424;2023-02-12T11:54:24;104115.56;;;8.61;84.37
71772;BME280;59606;52.138;5.424;2023-02-12T11:56:52;104112.09;;;8.61;83.45
71772;BME280;59606;52.138;5.424;2023-02-12T11:59:37;104113.81;;;8.60;84.14
71772;BME280;59606;52.138;5.424;2023-02-12T12:02:17;104111.25;;;8.63;83.90
71772;BME280;59606;52.138;5.424;2023-02-12T12:04:51;104110.41;;;8.66;84.06
71772;BME280;59606;52.138;5.424;2023-02-12T12:07:28;104108.66;;;8.68;83.21
71772;BME280;59606;52.138;5.424;2023-02-12T12:10:04;104106.97;;;8.70;83.27
71772;BME280;59606;52.138;5.424;2023-02-12T12:12:47;104093.09;;;8.71;82.62
71772;BME280;59606;52.138;5.424;2023-02-12T12:15:27;104097.44;;;8.73;82.18
71772;BME280;59606;52.138;5.424;2023-02-12T12:18:27;104087.94;;;8.76;82.63
71772;BME280;59606;52.138;5.424;2023-02-12T12:21:47;104089.66;;;8.78;82.59
71772;BME280;59606;52.138;5.424;2023-02-12T12:24:23;104090.53;;;8.82;82.44
71772;BME280;59606;52.138;5.424;2023-02-12T12:27:07;104087.09;;;8.83;82.31
71772;BME280;59606;52.138;5.424;2023-02-12T12:29:59;104080.13;;;8.82;81.56
71772;BME280;59606;52.138;5.424;2023-02-12T12:32:35;104083.63;;;8.84;81.92
71772;BME280;59606;52.138;5.424;2023-02-12T12:35:03;104077.56;;;8.85;81.70
71772;BME280;59606;52.138;5.424;2023-02-12T12:37:56;104071.53;;;8.90;82.53
71772;BME280;59606;52.138;5.424;2023-02-12T12:40:40;104076.72;;;8.92;81.53
71772;BME280;59606;52.138;5.424;2023-02-12T12:44:01;104074.09;;;8.87;80.59
71772;BME280;59606;52.138;5.424;2023-02-12T12:52:06;104068.94;;;8.93;80.55
71772;BME280;59606;52.138;5.424;2023-02-12T12:57:48;104057.66;;;8.90;79.77
71772;BME280;59606;52.138;5.424;2023-02-12T13:06:28;104053.31;;;8.90;80.27
71772;BME280;59606;52.138;5.424;2023-02-12T13:14:30;104046.44;;;8.95;80.32
71772;BME280;59606;52.138;5.424;2023-02-12T13:17:24;104048.13;;;8.93;79.87
71772;BME280;59606;52.138;5.424;2023-02-12T13:20:14;104049.88;;;8.93;79.30
71772;BME280;59606;52.138;5.424;2023-02-12T13:23:34;104049.88;;;8.93;79.49
71772;BME280;59606;52.138;5.424;2023-02-12T13:28:30;104048.16;;;8.96;79.75
71772;BME280;59606;52.138;5.424;2023-02-12T13:31:00;104037.75;;;8.96;80.00
71772;BME280;59606;52.138;5.424;2023-02-12T13:33:44;104038.59;;;8.98;79.16
71772;BME280;59606;52.138;5.424;2023-02-12T13:36:13;104029.06;;;8.97;79.68
71772;BME280;59606;52.138;5.424;2023-02-12T13:38:55;104037.75;;;8.96;79.46
71772;BME280;59606;52.138;5.424;2023-02-12T13:41:23;104038.63;;;8.97;79.46
71772;BME280;59606;52.138;5.424;2023-02-12T13:44:09;104041.19;;;8.98;79.27
71772;BME280;59606;52.138;5.424;2023-02-12T13:47:12;104035.16;;;8.96;78.97
71772;BME280;59606;52.138;5.424;2023-02-12T13:49:43;104023.03;;;8.95;78.91
71772;BME280;59606;52.138;5.424;2023-02-12T13:52:16;104025.59;;;8.91;78.65
71772;BME280;59606;52.138;5.424;2023-02-12T13:57:16;104019.53;;;8.89;79.29
71772;BME280;59606;52.138;5.424;2023-02-12T13:59:45;104019.53;;;8.90;79.58
71772;BME280;59606;52.138;5.424;2023-02-12T14:05:14;104021.25;;;8.94;78.98
71772;BME280;59606;52.138;5.424;2023-02-12T14:07:47;104024.72;;;8.92;79.05
71772;BME280;59606;52.138;5.424;2023-02-12T14:10:39;104023.00;;;8.92;78.78
71772;BME280;59606;52.138;5.424;2023-02-12T14:13:10;104015.22;;;8.95;78.52
71772;BME280;59606;52.138;5.424;2023-02-12T14:15:40;104014.34;;;8.93;78.23
71772;BME280;59606;52.138;5.424;2023-02-12T14:23:37;104004.78;;;8.86;78.42
71772;BME280;59606;52.138;5.424;2023-02-12T14:26:09;104008.25;;;8.85;78.22
71772;BME280;59606;52.138;5.424;2023-02-12T14:41:32;103997.81;;;8.81;78.39
71772;BME280;59606;52.138;5.424;2023-02-12T14:46:58;104000.44;;;8.79;78.02
71772;BME280;59606;52.138;5.424;2023-02-12T14:49:45;103995.22;;;8.78;77.63
71772;BME280;59606;52.138;5.424;2023-02-12T14:52:15;104004.78;;;8.79;77.96
71772;BME280;59606;52.138;5.424;2023-02-12T14:59:44;103999.53;;;8.72;77.44
71772;BME280;59606;52.138;5.424;2023-02-12T15:02:23;103995.22;;;8.73;77.85
71772;BME280;59606;52.138;5.424;2023-02-12T15:04:52;104002.13;;;8.69;77.34
71772;BME280;59606;52.138;5.424;2023-02-12T15:07:32;104009.03;;;8.67;77.47
71772;BME280;59606;52.138;5.424;2023-02-12T15:10:12;104007.28;;;8.65;77.08
71772;BME280;59606;52.138;5.424;2023-02-12T15:15:38;103997.75;;;8.64;76.77
71772;BME280;59606;52.138;5.424;2023-02-12T15:18:16;104004.69;;;8.60;76.82
71772;BME280;59606;52.138;5.424;2023-02-12T15:20:50;104005.53;;;8.61;77.32
71772;BME280;59606;52.138;5.424;2023-02-12T15:23:37;104001.19;;;8.61;77.58
71772;BME280;59606;52.138;5.424;2023-02-12T15:26:09;104000.31;;;8.58;77.40